Time;durP1;ratioP1;P1;durP2;ratioP2;P2;SDS_P1;SDS_P2;PMS_P1;PMS_P2;Temp;Humidity;BMP_temperature;BMP_pressure;BME280_temperature;BME280_humidity;BME280_pressure;Samples;Min_cycle;Max_cycle;Signal;HPM_P1;HPM_P2
2024/04/16 00:00:19;;;;;;;2.83;0.70;;;;;19.90;99153.00;;;;2227017;26;21422;-55
2024/04/16 00:01:19;;;;;;;1.87;0.60;;;;;19.90;99158.00;;;;2211350;26;20270;-57
2024/04/16 00:02:19;;;;;;;1.60;0.50;;;;;20.00;99154.00;;;;2228198;26;20263;-57
2024/04/16 00:03:20;;;;;;;1.50;0.43;;;;;19.90;99151.00;;;;2217910;26;20300;-57
2024/04/16 00:04:21;;;;;;;1.73;0.50;;;;;19.90;99162.00;;;;2227439;26;20301;-54
2024/04/16 00:05:21;;;;;;;1.40;0.38;;;;;19.90;99164.00;;;;2228103;26;20303;-55
2024/04/16 00:06:22;;;;;;;2.40;0.50;;;;;19.90;99157.00;;;;2218896;26;22406;-56
2024/04/16 00:07:22;;;;;;;2.37;0.50;;;;;19.90;99147.00;;;;2231697;26;20735;-58
2024/04/16 00:08:22;;;;;;;2.57;0.40;;;;;19.90;99159.00;;;;2224804;26;20305;-55
2024/04/16 00:09:23;;;;;;;1.77;0.47;;;;;19.90;99159.00;;;;2225340;26;20317;-55
2024/04/16 00:10:23;;;;;;;1.70;0.50;;;;;19.90;99153.00;;;;2217911;26;20373;-57
2024/04/16 00:11:24;;;;;;;1.50;0.50;;;;;19.90;99155.00;;;;2211941;26;20262;-58
2024/04/16 00:12:24;;;;;;;1.83;0.53;;;;;19.90;99148.00;;;;2241245;26;20261;-56
2024/04/16 00:13:24;;;;;;;2.57;0.70;;;;;19.90;99155.00;;;;2233118;26;20248;-56
2024/04/16 00:14:25;;;;;;;1.73;0.50;;;;;19.90;99152.00;;;;2218110;26;20243;-55
2024/04/16 00:15:25;;;;;;;1.57;0.47;;;;;19.90;99154.00;;;;2218855;26;20336;-56
2024/04/16 00:16:25;;;;;;;1.50;0.50;;;;;19.90;99156.00;;;;2214925;26;20298;-57
2024/04/16 00:17:27;;;;;;;1.80;0.70;;;;;19.90;99161.00;;;;2228662;26;20242;-56
2024/04/16 00:18:27;;;;;;;1.80;0.60;;;;;19.90;99152.00;;;;2224248;26;20353;-57
2024/04/16 00:19:28;;;;;;;1.60;0.50;;;;;19.90;99169.00;;;;2223822;26;20241;-55
2024/04/16 00:20:28;;;;;;;1.70;0.50;;;;;19.90;99153.00;;;;2222603;26;21035;-57
2024/04/16 00:21:28;;;;;;;2.03;0.57;;;;;19.90;99164.00;;;;2205834;26;20251;-57
2024/04/16 00:22:29;;;;;;;2.03;0.53;;;;;19.90;99159.00;;;;2213184;26;20658;-57
2024/04/16 00:23:29;;;;;;;1.40;0.50;;;;;19.90;99162.00;;;;2229342;26;20290;-54
2024/04/16 00:24:30;;;;;;;1.47;0.50;;;;;19.90;99155.00;;;;2231929;26;20242;-56
2024/04/16 00:25:30;;;;;;;2.10;0.40;;;;;19.90;99156.00;;;;2219818;26;20247;-56
2024/04/16 00:26:30;;;;;;;2.20;0.60;;;;;19.90;99145.00;;;;2214543;26;20380;-57
2024/04/16 00:27:31;;;;;;;2.97;0.47;;;;;19.90;99154.00;;;;2221145;26;20255;-56
2024/04/16 00:28:31;;;;;;;1.80;0.50;;;;;19.90;99141.00;;;;2217775;26;20247;-56
2024/04/16 00:29:31;;;;;;;1.50;0.50;;;;;19.90;99144.00;;;;2221743;26;20255;-55
2024/04/16 00:30:32;;;;;;;1.83;0.50;;;;;19.90;99146.00;;;;2218623;26;20255;-56
2024/04/16 00:31:32;;;;;;;2.00;0.57;;;;;19.90;99148.00;;;;2213827;26;20258;-56
2024/04/16 00:32:32;;;;;;;2.37;0.60;;;;;19.90;99149.00;;;;2228804;26;20238;-55
2024/04/16 00:33:33;;;;;;;2.73;0.70;;;;;19.90;99148.00;;;;2223133;26;20641;-57
2024/04/16 00:34:33;;;;;;;1.30;0.30;;;;;19.90;99135.00;;;;2220914;26;20587;-57
2024/04/16 00:35:33;;;;;;;1.50;0.50;;;;;19.90;99147.00;;;;2215980;26;20832;-58
2024/04/16 00:36:34;;;;;;;1.83;0.50;;;;;19.90;99141.00;;;;2212363;26;20259;-57
2024/04/16 00:37:34;;;;;;;1.50;0.50;;;;;19.90;99150.00;;;;2231632;26;20258;-56
2024/04/16 00:38:34;;;;;;;1.30;0.40;;;;;19.90;99143.00;;;;2224343;26;20252;-56
2024/04/16 00:39:35;;;;;;;1.53;0.40;;;;;19.90;99136.00;;;;2225944;26;20250;-57
2024/04/16 00:40:35;;;;;;;1.63;0.50;;;;;19.90;99136.00;;;;2215671;26;20301;-58
2024/04/16 00:41:35;;;;;;;1.83;0.50;;;;;19.90;99129.00;;;;2209100;26;20263;-58
2024/04/16 00:42:36;;;;;;;1.93;0.70;;;;;19.90;99129.00;;;;2225913;26;20355;-58
2024/04/16 00:43:36;;;;;;;1.90;0.50;;;;;19.90;99139.00;;;;2216639;26;20247;-59
2024/04/16 00:44:36;;;;;;;1.60;0.50;;;;;19.90;99136.00;;;;2217618;26;20348;-59
2024/04/16 00:45:37;;;;;;;1.40;0.40;;;;;19.90;99133.00;;;;2225748;26;20254;-60
2024/04/16 00:46:37;;;;;;;1.57;0.40;;;;;19.90;99129.00;;;;2216762;26;20774;-56
2024/04/16 00:47:38;;;;;;;1.70;0.57;;;;;19.90;99131.00;;;;2218899;26;20298;-55
2024/04/16 00:48:38;;;;;;;2.60;0.50;;;;;19.90;99117.00;;;;2217392;26;20289;-56
2024/04/16 00:49:38;;;;;;;1.40;0.40;;;;;19.90;99131.00;;;;2215971;26;20255;-57
2024/04/16 00:50:39;;;;;;;2.13;0.50;;;;;19.90;99140.00;;;;2201505;26;20303;-55
2024/04/16 00:51:39;;;;;;;1.73;0.50;;;;;19.90;99126.00;;;;2192235;26;20291;-55
2024/04/16 00:52:40;;;;;;;1.50;0.43;;;;;19.90;99031.00;;;;2202597;26;20252;-57
2024/04/16 00:53:41;;;;;;;2.40;0.70;;;;;19.90;99125.00;;;;2186751;26;20480;-56
2024/04/16 00:54:42;;;;;;;1.87;0.53;;;;;19.90;99123.00;;;;2211110;26;20646;-54
2024/04/16 00:55:43;;;;;;;2.75;0.47;;;;;19.90;99124.00;;;;2222617;26;20314;-58
2024/04/16 00:56:44;;;;;;;1.52;0.45;;;;;19.90;99122.00;;;;2191802;26;20303;-58
2024/04/16 00:57:44;;;;;;;1.87;0.43;;;;;19.80;99119.00;;;;2203994;26;20249;-59
2024/04/16 00:58:45;;;;;;;1.60;0.70;;;;;19.90;99118.00;;;;2216641;26;20380;-57
2024/04/16 00:59:46;;;;;;;1.42;0.40;;;;;19.90;99103.00;;;;2220174;26;20290;-58
2024/04/16 01:00:47;;;;;;;2.00;0.60;;;;;19.90;99110.00;;;;2217504;26;20699;-58
2024/04/16 01:01:47;;;;;;;2.30;0.60;;;;;19.90;99127.00;;;;2205560;26;20293;-59
2024/04/16 01:02:47;;;;;;;1.90;0.50;;;;;19.90;99131.00;;;;2218470;26;20255;-55
2024/04/16 01:03:48;;;;;;;1.50;0.50;;;;;19.90;99120.00;;;;2217153;26;20341;-56
2024/04/16 01:04:48;;;;;;;1.40;0.43;;;;;19.90;98453.00;;;;2221328;26;20256;-59
2024/04/16 01:05:48;;;;;;;1.67;0.60;;;;;19.90;99116.00;;;;2222807;26;20255;-59
2024/04/16 01:06:52;;;;;;;1.67;0.60;;;;;19.90;99106.00;;;;2209083;26;20346;-59
2024/04/16 01:07:52;;;;;;;2.42;0.50;;;;;19.90;99076.00;;;;2221006;26;20251;-56
2024/04/16 01:08:53;;;;;;;2.10;0.63;;;;;19.90;99113.00;;;;2226141;26;21122;-57
2024/04/16 01:09:53;;;;;;;1.87;0.50;;;;;19.90;99094.00;;;;2220941;26;20294;-57
2024/04/16 01:10:53;;;;;;;2.17;0.60;;;;;19.90;98973.00;;;;2221275;26;20248;-57
2024/04/16 01:11:58;;;;;;;1.80;0.47;;;;;19.80;99064.00;;;;2209504;26;20259;-57
2024/04/16 01:12:58;;;;;;;1.90;0.47;;;;;19.90;99109.00;;;;2231013;26;20293;-57
2024/04/16 01:13:59;;;;;;;1.40;0.40;;;;;19.80;99109.00;;;;2227417;26;20258;-56
2024/04/16 01:15:00;;;;;;;1.42;0.43;;;;;19.80;99119.00;;;;2220326;26;21075;-58
2024/04/16 01:16:00;;;;;;;2.07;0.40;;;;;19.90;99119.00;;;;2232265;26;20259;-57
2024/04/16 01:17:00;;;;;;;2.57;0.70;;;;;19.80;99073.00;;;;2209289;26;20260;-56
2024/04/16 01:18:02;;;;;;;2.20;0.70;;;;;19.90;99082.00;;;;2232457;26;20313;-57
2024/04/16 01:19:02;;;;;;;1.40;0.40;;;;;19.90;99092.00;;;;2224473;26;20363;-57
2024/04/16 01:20:03;;;;;;;2.53;0.50;;;;;19.80;99103.00;;;;2226831;26;20263;-57
2024/04/16 01:21:03;;;;;;;2.10;0.70;;;;;19.90;99104.00;;;;2206194;26;20259;-56
2024/04/16 01:22:04;;;;;;;1.70;0.50;;;;;19.80;99096.00;;;;2246079;26;20245;-57
2024/04/16 01:23:04;;;;;;;1.83;0.50;;;;;19.80;99024.00;;;;2245567;26;20253;-58
2024/04/16 01:24:04;;;;;;;2.10;0.57;;;;;19.90;99050.00;;;;2220257;26;20298;-57
2024/04/16 01:25:05;;;;;;;1.70;0.40;;;;;19.90;99121.00;;;;2232935;26;20362;-57
2024/04/16 01:26:05;;;;;;;2.00;0.40;;;;;19.90;99074.00;;;;2207864;26;20247;-58
2024/04/16 01:27:05;;;;;;;1.97;0.43;;;;;19.90;99102.00;;;;2229179;26;20354;-57
2024/04/16 01:28:06;;;;;;;1.70;0.50;;;;;19.80;98884.00;;;;2220713;26;20289;-57
2024/04/16 01:29:06;;;;;;;1.40;0.40;;;;;19.80;99100.00;;;;2223811;26;20300;-57
2024/04/16 01:30:07;;;;;;;1.70;0.63;;;;;19.90;99114.00;;;;2225962;26;20301;-57
2024/04/16 01:31:07;;;;;;;1.60;0.50;;;;;19.80;99104.00;;;;2211087;26;20251;-57
2024/04/16 01:32:07;;;;;;;2.70;0.60;;;;;19.80;99085.00;;;;2220353;26;20251;-57
2024/04/16 01:33:08;;;;;;;1.73;0.40;;;;;19.80;99101.00;;;;2220398;26;20247;-58
2024/04/16 01:34:08;;;;;;;1.60;0.50;;;;;19.80;99099.00;;;;2218375;26;20324;-57
2024/04/16 01:35:10;;;;;;;1.80;0.70;;;;;19.80;99095.00;;;;2234075;26;20250;-57
2024/04/16 01:36:10;;;;;;;1.83;0.45;;;;;19.80;99084.00;;;;2219725;26;20266;-57
2024/04/16 01:37:11;;;;;;;1.87;0.50;;;;;19.80;99092.00;;;;2232143;26;20258;-58
2024/04/16 01:38:11;;;;;;;1.60;0.40;;;;;19.90;99102.00;;;;2219687;26;20263;-57
2024/04/16 01:39:11;;;;;;;3.77;0.63;;;;;19.80;99063.00;;;;2221282;26;20705;-57
2024/04/16 01:40:12;;;;;;;4.20;0.57;;;;;19.80;99085.00;;;;2221015;26;20301;-61
2024/04/16 01:41:12;;;;;;;2.37;0.50;;;;;19.80;99090.00;;;;2212153;26;20251;-61
2024/04/16 01:42:12;;;;;;;2.13;0.60;;;;;19.80;99095.00;;;;2232717;26;20699;-59
2024/04/16 01:43:13;;;;;;;1.70;0.53;;;;;19.80;99077.00;;;;2218230;26;20256;-59
2024/04/16 01:44:13;;;;;;;2.33;0.70;;;;;19.90;99058.00;;;;2231595;26;20250;-58
2024/04/16 01:45:14;;;;;;;1.93;0.47;;;;;19.80;99013.00;;;;2218937;26;20336;-57
2024/04/16 01:46:14;;;;;;;2.13;0.57;;;;;19.80;99080.00;;;;2218906;26;20250;-57
2024/04/16 01:47:14;;;;;;;2.17;0.40;;;;;19.80;99082.00;;;;2219414;26;20251;-58
2024/04/16 01:48:15;;;;;;;1.70;0.50;;;;;19.80;99076.00;;;;2228425;26;20347;-58
2024/04/16 01:49:15;;;;;;;1.70;0.50;;;;;19.90;99069.00;;;;2231812;26;20332;-58
2024/04/16 01:50:16;;;;;;;1.73;0.50;;;;;19.80;98968.00;;;;2222699;26;20350;-61
2024/04/16 01:51:16;;;;;;;1.43;0.47;;;;;19.80;99069.00;;;;2216337;26;20600;-56
2024/04/16 01:52:16;;;;;;;3.67;0.70;;;;;19.80;99064.00;;;;2233207;26;20246;-57
2024/04/16 01:53:17;;;;;;;1.83;0.40;;;;;19.80;99061.00;;;;2222534;26;20344;-58
2024/04/16 01:54:17;;;;;;;1.90;0.70;;;;;19.80;99058.00;;;;2230854;26;20250;-57
2024/04/16 01:55:18;;;;;;;2.80;0.70;;;;;19.80;98864.00;;;;2220563;26;20481;-57
2024/04/16 01:56:18;;;;;;;1.77;0.50;;;;;19.80;99058.00;;;;2208632;26;20306;-58
2024/04/16 01:57:18;;;;;;;1.60;0.50;;;;;19.80;99086.00;;;;2221275;26;20255;-57
2024/04/16 01:58:19;;;;;;;2.23;0.60;;;;;19.80;99063.00;;;;2218554;26;20243;-58
2024/04/16 01:59:19;;;;;;;1.90;0.50;;;;;19.80;99042.00;;;;2221545;26;20289;-58
2024/04/16 02:00:19;;;;;;;1.40;0.50;;;;;19.80;98984.00;;;;2230550;26;20301;-57
2024/04/16 02:01:20;;;;;;;1.60;0.50;;;;;19.80;98999.00;;;;2218480;26;20284;-58
2024/04/16 02:02:20;;;;;;;1.70;0.40;;;;;19.80;98952.00;;;;2220251;26;20266;-58
2024/04/16 02:03:20;;;;;;;1.40;0.40;;;;;19.80;99047.00;;;;2218845;26;20255;-58
2024/04/16 02:04:21;;;;;;;1.80;0.60;;;;;19.90;98989.00;;;;2225418;26;20298;-57
2024/04/16 02:05:21;;;;;;;2.63;0.50;;;;;19.80;99052.00;;;;2222431;26;20352;-58
2024/04/16 02:06:21;;;;;;;2.17;0.53;;;;;19.80;98950.00;;;;2209390;26;20279;-57
2024/04/16 02:07:22;;;;;;;1.80;0.50;;;;;19.80;99030.00;;;;2221426;26;20266;-57
2024/04/16 02:08:22;;;;;;;1.73;0.60;;;;;19.80;99030.00;;;;2222542;26;20255;-58
2024/04/16 02:09:22;;;;;;;1.77;0.40;;;;;19.70;99048.00;;;;2221855;26;20325;-58
2024/04/16 02:10:23;;;;;;;1.30;0.40;;;;;19.80;99034.00;;;;2220054;26;20255;-59
2024/04/16 02:11:23;;;;;;;3.00;0.60;;;;;19.80;98984.00;;;;2207501;26;20251;-58
2024/04/16 02:12:23;;;;;;;1.80;0.40;;;;;19.80;98994.00;;;;2221979;26;20255;-57
2024/04/16 02:13:25;;;;;;;1.70;0.40;;;;;19.80;98972.00;;;;2230125;26;20262;-58
2024/04/16 02:14:26;;;;;;;2.05;0.43;;;;;19.80;99047.00;;;;2229740;26;22652;-58
2024/04/16 02:15:26;;;;;;;1.55;0.52;;;;;19.80;99057.00;;;;2229148;26;20255;-58
2024/04/16 02:16:27;;;;;;;2.70;0.60;;;;;19.80;98923.00;;;;2211540;26;20305;-58
2024/04/16 02:17:27;;;;;;;1.50;0.50;;;;;19.80;99036.00;;;;2226733;26;21012;-58
2024/04/16 02:18:28;;;;;;;1.80;0.53;;;;;19.80;99028.00;;;;2232809;26;20331;-57
2024/04/16 02:19:28;;;;;;;1.73;0.50;;;;;19.80;99049.00;;;;2224134;26;20251;-57
2024/04/16 02:20:28;;;;;;;1.30;0.40;;;;;19.80;99030.00;;;;2229525;26;20311;-57
2024/04/16 02:21:29;;;;;;;1.90;0.40;;;;;19.80;99031.00;;;;2219790;26;20703;-57
2024/04/16 02:22:29;;;;;;;1.97;0.57;;;;;19.80;99037.00;;;;2229512;26;20300;-57
2024/04/16 02:23:29;;;;;;;2.00;0.67;;;;;19.80;99025.00;;;;2209775;26;20259;-58
2024/04/16 02:24:30;;;;;;;2.30;0.57;;;;;19.80;99021.00;;;;2227454;26;20307;-58
2024/04/16 02:25:30;;;;;;;1.63;0.60;;;;;19.90;99020.00;;;;2227346;26;20258;-55
2024/04/16 02:26:31;;;;;;;1.70;0.60;;;;;19.80;99030.00;;;;2204655;26;20274;-58
2024/04/16 02:27:31;;;;;;;3.20;0.70;;;;;19.80;99024.00;;;;2218781;26;21009;-57
2024/04/16 02:28:32;;;;;;;1.60;0.53;;;;;19.80;99035.00;;;;2221740;26;20297;-56
2024/04/16 02:29:32;;;;;;;2.13;0.50;;;;;19.80;99025.00;;;;2232837;26;20258;-56
2024/04/16 02:30:33;;;;;;;1.70;0.50;;;;;19.80;99020.00;;;;2224410;26;20293;-57
2024/04/16 02:31:34;;;;;;;1.40;0.43;;;;;19.80;99021.00;;;;2216414;26;20797;-57
2024/04/16 02:32:34;;;;;;;2.03;0.63;;;;;19.80;99033.00;;;;2223341;26;20311;-58
2024/04/16 02:33:34;;;;;;;1.70;0.50;;;;;19.80;99033.00;;;;2217063;26;20255;-56
2024/04/16 02:34:35;;;;;;;1.30;0.40;;;;;19.80;99033.00;;;;2227872;26;20247;-56
2024/04/16 02:35:35;;;;;;;2.23;0.47;;;;;19.80;99013.00;;;;2226565;26;20420;-59
2024/04/16 02:36:35;;;;;;;2.47;0.63;;;;;19.80;99027.00;;;;2207811;26;20826;-56
2024/04/16 02:37:36;;;;;;;1.87;0.50;;;;;19.80;99015.00;;;;2215531;26;20310;-58
2024/04/16 02:38:36;;;;;;;3.37;0.60;;;;;19.80;99022.00;;;;2217734;26;20251;-59
2024/04/16 02:39:36;;;;;;;1.90;0.50;;;;;19.80;99024.00;;;;2221272;26;20255;-56
2024/04/16 02:40:37;;;;;;;2.10;0.50;;;;;19.80;99013.00;;;;2219589;26;20312;-56
2024/04/16 02:41:38;;;;;;;1.77;0.57;;;;;19.80;99023.00;;;;2211164;26;20255;-58
2024/04/16 02:42:38;;;;;;;2.17;0.50;;;;;19.80;99021.00;;;;2205086;26;20297;-58
2024/04/16 02:43:38;;;;;;;1.90;0.47;;;;;19.80;99020.00;;;;2215976;26;20978;-59
2024/04/16 02:44:39;;;;;;;2.40;0.43;;;;;19.80;99043.00;;;;2218285;26;22929;-60
2024/04/16 02:45:39;;;;;;;1.90;0.50;;;;;19.80;99013.00;;;;2230355;26;20750;-56
2024/04/16 02:46:39;;;;;;;1.70;0.50;;;;;19.80;98997.00;;;;2210835;26;20816;-56
2024/04/16 02:47:40;;;;;;;1.50;0.60;;;;;19.80;99010.00;;;;2222614;26;20300;-56
2024/04/16 02:48:40;;;;;;;5.60;0.90;;;;;19.80;99004.00;;;;2218486;26;20247;-56
2024/04/16 02:49:40;;;;;;;1.57;0.47;;;;;19.80;99019.00;;;;2222347;26;20294;-58
2024/04/16 02:50:41;;;;;;;1.43;0.50;;;;;19.80;99006.00;;;;2232860;26;20250;-58
2024/04/16 02:51:41;;;;;;;1.47;0.40;;;;;19.70;99006.00;;;;2214780;26;20350;-58
2024/04/16 02:52:41;;;;;;;2.17;0.40;;;;;19.80;99010.00;;;;2224742;26;20263;-55
2024/04/16 02:53:42;;;;;;;1.57;0.43;;;;;19.80;99018.00;;;;2221176;26;20284;-55
2024/04/16 02:54:42;;;;;;;3.90;0.60;;;;;19.80;99017.00;;;;2225293;26;20253;-57
2024/04/16 02:55:42;;;;;;;1.90;0.50;;;;;19.80;99008.00;;;;2229462;26;20255;-58
2024/04/16 02:56:42;;;;;;;1.50;0.57;;;;;19.80;99012.00;;;;2220221;26;20299;-58
2024/04/16 02:57:43;;;;;;;1.73;0.53;;;;;19.80;99007.00;;;;2224617;26;20282;-57
2024/04/16 02:58:43;;;;;;;2.23;0.60;;;;;19.80;99020.00;;;;2224867;26;20246;-57
2024/04/16 02:59:46;;;;;;;2.57;0.70;;;;;19.80;99017.00;;;;2224832;26;20359;-55
2024/04/16 03:00:47;;;;;;;1.88;0.55;;;;;19.80;99022.00;;;;2227146;26;20305;-57
2024/04/16 03:01:47;;;;;;;1.57;0.47;;;;;19.80;99015.00;;;;2212815;26;20306;-58
2024/04/16 03:02:47;;;;;;;2.40;0.50;;;;;19.80;99020.00;;;;2229658;26;20246;-57
2024/04/16 03:03:48;;;;;;;2.50;0.60;;;;;19.80;99009.00;;;;2224211;26;20293;-55
2024/04/16 03:04:49;;;;;;;2.43;0.60;;;;;19.80;99023.00;;;;2215676;26;20247;-58
2024/04/16 03:05:55;;;;;;;1.80;0.60;;;;;19.80;99021.00;;;;2216146;26;20518;-59
2024/04/16 03:06:56;;;;;;;1.60;0.55;;;;;19.80;99011.00;;;;2209825;26;20285;-57
2024/04/16 03:07:56;;;;;;;2.70;0.60;;;;;19.80;99015.00;;;;2211478;26;20281;-57
2024/04/16 03:08:56;;;;;;;1.30;0.40;;;;;19.80;99029.00;;;;2223058;26;20282;-58
2024/04/16 03:09:57;;;;;;;1.20;0.40;;;;;19.80;99025.00;;;;2232609;26;20251;-56
2024/04/16 03:11:00;;;;;;;1.77;0.40;;;;;19.80;99025.00;;;;2228633;26;20375;-57
2024/04/16 03:12:01;;;;;;;1.65;0.50;;;;;19.80;99024.00;;;;2211745;26;20368;-56
2024/04/16 03:13:02;;;;;;;1.50;0.37;;;;;19.80;99018.00;;;;2230925;26;20258;-56
2024/04/16 03:14:02;;;;;;;2.27;0.50;;;;;19.80;99012.00;;;;2230318;26;20262;-57
2024/04/16 03:15:03;;;;;;;2.97;0.63;;;;;19.80;99022.00;;;;2232644;26;20296;-56
2024/04/16 03:16:06;;;;;;;2.05;0.50;;;;;19.80;99024.00;;;;2209749;26;20584;-57
2024/04/16 03:17:07;;;;;;;1.95;0.60;;;;;19.70;99020.00;;;;2228067;26;20257;-57
2024/04/16 03:18:07;;;;;;;3.13;0.60;;;;;19.80;99023.00;;;;2221513;26;20251;-56
2024/04/16 03:19:08;;;;;;;1.90;0.70;;;;;19.80;99017.00;;;;2218006;26;20251;-57
2024/04/16 03:20:08;;;;;;;1.95;0.50;;;;;19.80;99011.00;;;;2225467;26;20262;-59
2024/04/16 03:21:09;;;;;;;2.60;0.70;;;;;19.80;99014.00;;;;2206853;26;20263;-55
2024/04/16 03:22:09;;;;;;;1.60;0.60;;;;;19.80;99014.00;;;;2226862;26;20255;-56
2024/04/16 03:23:09;;;;;;;2.17;0.43;;;;;19.80;99021.00;;;;2220430;26;20285;-57
2024/04/16 03:24:10;;;;;;;3.93;0.60;;;;;19.80;99012.00;;;;2230810;26;20254;-58
2024/04/16 03:25:10;;;;;;;2.07;0.50;;;;;19.80;99020.00;;;;2226807;26;20356;-59
2024/04/16 03:26:10;;;;;;;2.40;0.67;;;;;19.80;99006.00;;;;2219152;26;20246;-58
2024/04/16 03:27:11;;;;;;;2.00;0.63;;;;;19.80;99004.00;;;;2220077;26;20267;-56
2024/04/16 03:28:11;;;;;;;2.33;0.40;;;;;19.80;99002.00;;;;2213181;26;20360;-56
2024/04/16 03:29:11;;;;;;;1.87;0.50;;;;;19.80;98992.00;;;;2215849;26;21143;-56
2024/04/16 03:30:12;;;;;;;1.97;0.47;;;;;19.70;98998.00;;;;2223651;26;20297;-57
2024/04/16 03:31:12;;;;;;;1.90;0.50;;;;;19.70;99005.00;;;;2205766;26;20256;-57
2024/04/16 03:32:13;;;;;;;2.63;0.50;;;;;19.70;98995.00;;;;2229348;26;20296;-56
2024/04/16 03:33:13;;;;;;;2.20;0.50;;;;;19.80;98999.00;;;;2218341;26;20258;-57
2024/04/16 03:34:13;;;;;;;2.20;0.60;;;;;19.80;99003.00;;;;2229886;26;20254;-56
2024/04/16 03:35:13;;;;;;;1.27;0.30;;;;;19.00;99002.00;;;;2221222;26;20380;-56
2024/04/16 03:36:14;;;;;;;1.60;0.40;;;;;19.70;99000.00;;;;2206777;26;20317;-57
2024/04/16 03:37:14;;;;;;;1.90;0.40;;;;;19.70;98919.00;;;;2230817;26;20257;-58
2024/04/16 03:38:15;;;;;;;2.33;0.60;;;;;19.80;98995.00;;;;2219919;26;20652;-58
2024/04/16 03:39:15;;;;;;;1.60;0.40;;;;;19.80;98990.00;;;;2231390;26;20254;-59
2024/04/16 03:40:15;;;;;;;1.47;0.40;;;;;19.50;98987.00;;;;2227160;26;20335;-58
2024/04/16 03:41:16;;;;;;;5.97;1.10;;;;;19.70;98985.00;;;;2208492;26;20251;-55
2024/04/16 03:42:16;;;;;;;1.40;0.40;;;;;19.80;98981.00;;;;2217955;26;20281;-56
2024/04/16 03:43:17;;;;;;;1.97;0.57;;;;;19.80;98980.00;;;;2225984;26;20251;-58
2024/04/16 03:44:17;;;;;;;2.30;0.60;;;;;19.70;98983.00;;;;2219262;26;20259;-57
2024/04/16 03:45:17;;;;;;;2.73;0.60;;;;;19.70;98982.00;;;;2226260;26;20455;-59
2024/04/16 03:46:17;;;;;;;1.50;0.50;;;;;19.70;98978.00;;;;2212071;26;20247;-59
2024/04/16 03:47:18;;;;;;;2.53;0.70;;;;;19.70;98990.00;;;;2229164;26;20343;-58
2024/04/16 03:48:18;;;;;;;2.40;0.60;;;;;19.70;98980.00;;;;2225929;26;20300;-55
2024/04/16 03:49:19;;;;;;;1.63;0.40;;;;;19.70;98983.00;;;;2217734;26;20251;-55
2024/04/16 03:50:19;;;;;;;1.50;0.43;;;;;19.70;98985.00;;;;2215074;26;20251;-59
2024/04/16 03:51:19;;;;;;;1.93;0.50;;;;;19.70;98979.00;;;;2214623;26;20262;-57
2024/04/16 03:52:20;;;;;;;3.17;0.73;;;;;19.70;98980.00;;;;2216356;26;20329;-57
2024/04/16 03:53:20;;;;;;;1.43;0.43;;;;;19.70;98982.00;;;;2217614;26;20720;-59
2024/04/16 03:54:20;;;;;;;2.13;0.70;;;;;19.70;98976.00;;;;2216041;26;21390;-57
2024/04/16 03:55:21;;;;;;;1.90;0.50;;;;;19.70;98978.00;;;;2218179;26;20247;-56
2024/04/16 03:56:21;;;;;;;2.73;0.80;;;;;19.70;98971.00;;;;2211512;26;20318;-57
2024/04/16 03:57:21;;;;;;;2.27;0.60;;;;;19.70;98973.00;;;;2218041;26;20293;-56
2024/04/16 03:58:22;;;;;;;2.33;0.50;;;;;19.70;98976.00;;;;2217409;26;20251;-56
2024/04/16 03:59:38;;;;;;;1.30;0.40;;;;;19.70;98975.00;;;;2217737;26;20251;-57
2024/04/16 04:01:57;;;;;;;2.03;0.60;;;;;19.70;98970.00;;;;2212367;26;20699;-59
2024/04/16 04:02:58;;;;;;;1.80;0.60;;;;;19.70;98974.00;;;;2219332;26;20263;-59
2024/04/16 04:03:58;;;;;;;1.70;0.60;;;;;19.70;98973.00;;;;2219227;26;20243;-58
2024/04/16 04:05:00;;;;;;;1.80;0.50;;;;;19.70;98976.00;;;;2217715;26;20267;-59
2024/04/16 04:06:01;;;;;;;1.60;0.50;;;;;19.70;98964.00;;;;2216077;26;20259;-63
2024/04/16 04:07:01;;;;;;;2.67;0.67;;;;;19.70;98968.00;;;;2212867;26;20255;-58
2024/04/16 04:08:01;;;;;;;2.10;0.60;;;;;19.70;98969.00;;;;2231651;26;20776;-55
2024/04/16 04:09:02;;;;;;;1.80;0.50;;;;;19.70;98964.00;;;;2224120;26;20247;-57
2024/04/16 04:10:03;;;;;;;1.80;0.50;;;;;19.70;98970.00;;;;2226820;26;20257;-55
2024/04/16 04:11:04;;;;;;;2.25;0.60;;;;;19.70;98962.00;;;;2211782;26;20255;-55
2024/04/16 04:12:04;;;;;;;1.67;0.40;;;;;19.70;98970.00;;;;2224337;26;20811;-57
2024/04/16 04:13:05;;;;;;;2.30;0.60;;;;;19.70;98966.00;;;;2220508;26;20251;-55
2024/04/16 04:14:05;;;;;;;2.13;0.53;;;;;19.70;98969.00;;;;2225540;26;20250;-57
2024/04/16 04:15:05;;;;;;;2.03;0.50;;;;;19.70;98972.00;;;;2222241;26;20356;-58
2024/04/16 04:16:06;;;;;;;3.00;0.77;;;;;19.70;98970.00;;;;2206761;26;20251;-57
2024/04/16 04:17:06;;;;;;;1.90;0.40;;;;;19.70;98975.00;;;;2223991;26;20750;-56
2024/04/16 04:18:06;;;;;;;1.60;0.50;;;;;19.70;98968.00;;;;2224563;26;20742;-57
2024/04/16 04:19:07;;;;;;;1.70;0.50;;;;;19.70;98961.00;;;;2231225;26;20768;-57
2024/04/16 04:20:08;;;;;;;1.90;0.50;;;;;19.70;98965.00;;;;2227562;26;20278;-58
2024/04/16 04:21:08;;;;;;;3.07;0.50;;;;;19.70;98959.00;;;;2210984;26;20260;-59
2024/04/16 04:22:08;;;;;;;1.47;0.50;;;;;19.70;98969.00;;;;2226178;26;20254;-56
2024/04/16 04:23:09;;;;;;;2.60;0.40;;;;;19.70;98963.00;;;;2219885;26;20255;-58
2024/04/16 04:24:10;;;;;;;1.80;0.50;;;;;19.70;98958.00;;;;2228459;26;20266;-58
2024/04/16 04:25:10;;;;;;;2.10;0.60;;;;;19.70;98959.00;;;;2223116;26;21151;-55
2024/04/16 04:26:10;;;;;;;2.90;0.90;;;;;19.70;98951.00;;;;2221167;26;20242;-57
2024/04/16 04:27:11;;;;;;;1.67;0.50;;;;;19.70;98963.00;;;;2221213;26;20251;-56
2024/04/16 04:28:11;;;;;;;2.17;0.60;;;;;19.70;98962.00;;;;2217131;26;20351;-55
2024/04/16 04:29:11;;;;;;;2.70;0.53;;;;;19.70;98956.00;;;;2217484;26;20373;-58
2024/04/16 04:30:13;;;;;;;2.77;0.60;;;;;19.70;98962.00;;;;2218487;26;21128;-57
2024/04/16 04:31:14;;;;;;;2.30;0.60;;;;;19.70;98961.00;;;;2218201;26;20263;-56
2024/04/16 04:32:15;;;;;;;2.13;0.43;;;;;19.70;98962.00;;;;2216943;26;20251;-57
2024/04/16 04:33:15;;;;;;;1.80;0.40;;;;;19.70;98962.00;;;;2223909;26;20289;-57
2024/04/16 04:34:15;;;;;;;2.10;0.60;;;;;19.70;98955.00;;;;2226480;26;20254;-56
2024/04/16 04:35:16;;;;;;;1.90;0.60;;;;;19.70;98956.00;;;;2219030;26;20251;-57
2024/04/16 04:36:16;;;;;;;1.60;0.50;;;;;19.70;98956.00;;;;2207191;26;20378;-57
2024/04/16 04:37:16;;;;;;;1.40;0.40;;;;;19.70;98968.00;;;;2220191;26;20258;-57
2024/04/16 04:38:17;;;;;;;1.30;0.37;;;;;19.70;98960.00;;;;2222372;26;20256;-56
2024/04/16 04:39:17;;;;;;;1.50;0.40;;;;;19.70;98966.00;;;;2229125;26;20292;-56
2024/04/16 04:40:17;;;;;;;1.70;0.50;;;;;19.70;98963.00;;;;2227698;26;20296;-57
2024/04/16 04:41:18;;;;;;;3.20;0.77;;;;;19.70;98966.00;;;;2210478;26;20251;-57
2024/04/16 04:42:19;;;;;;;2.97;1.42;;;;;19.70;98956.00;;;;2218245;26;20293;-58
2024/04/16 04:43:19;;;;;;;2.43;0.50;;;;;19.70;98958.00;;;;2221264;26;20618;-56
2024/04/16 04:44:20;;;;;;;1.83;0.60;;;;;19.70;98952.00;;;;2219025;26;20259;-56
2024/04/16 04:45:20;;;;;;;1.80;0.50;;;;;19.70;98958.00;;;;2219136;26;20333;-58
2024/04/16 04:46:21;;;;;;;2.00;0.70;;;;;19.70;98951.00;;;;2214097;26;21425;-57
2024/04/16 04:47:22;;;;;;;1.93;0.60;;;;;19.70;98953.00;;;;2218714;26;20582;-56
2024/04/16 04:48:23;;;;;;;1.43;0.40;;;;;19.70;98956.00;;;;2218381;26;20251;-56
2024/04/16 04:49:23;;;;;;;1.83;0.40;;;;;19.70;98952.00;;;;2223087;26;20301;-57
2024/04/16 04:50:24;;;;;;;3.40;0.60;;;;;19.70;98954.00;;;;2220006;26;20302;-56
2024/04/16 04:51:24;;;;;;;1.73;0.50;;;;;19.70;98949.00;;;;2214482;26;20383;-56
2024/04/16 04:52:24;;;;;;;1.70;0.50;;;;;19.20;98958.00;;;;2230163;26;20238;-57
2024/04/16 04:53:25;;;;;;;2.10;0.63;;;;;19.70;98953.00;;;;2232479;26;20350;-56
2024/04/16 04:54:25;;;;;;;1.70;0.50;;;;;19.70;98947.00;;;;2219166;26;20532;-58
2024/04/16 04:55:25;;;;;;;1.70;0.60;;;;;19.70;98946.00;;;;2219062;26;20321;-58
2024/04/16 04:56:28;;;;;;;1.90;0.70;;;;;19.70;98943.00;;;;2209540;26;20258;-58
2024/04/16 04:57:28;;;;;;;1.60;0.50;;;;;19.70;98948.00;;;;2218744;26;20296;-56
2024/04/16 04:58:28;;;;;;;1.80;0.40;;;;;19.70;98947.00;;;;2220177;26;20264;-56
2024/04/16 04:59:29;;;;;;;1.97;0.50;;;;;19.70;98948.00;;;;2218512;26;20376;-55
2024/04/16 05:00:29;;;;;;;2.60;0.70;;;;;19.70;98947.00;;;;2218728;26;20309;-57
2024/04/16 05:01:29;;;;;;;2.00;0.60;;;;;19.60;98941.00;;;;2214419;26;20310;-58
2024/04/16 05:02:30;;;;;;;1.60;0.40;;;;;19.70;98945.00;;;;2228152;26;20832;-59
2024/04/16 05:03:30;;;;;;;1.97;0.50;;;;;19.60;98935.00;;;;2231316;26;20734;-57
2024/04/16 05:04:30;;;;;;;1.73;0.50;;;;;19.70;98988.00;;;;2219877;26;20270;-57